Hammond, Oregon
Current Conditions -  °F | °C
As of 2:55 AM on Monday 20 Oct 2014 (Local Time) from KAST Reporting Station
Light Rain Light Rain  
Wind Chill: 58°   Ceiling: 4200
Heat Index: 58°   Visibility: 10mi
Dew Point: 55°   Wind: 10mph
Humidity: 90%   Direction: 190°S
Pressure: 29.7"   Gusts: NA
Location:  46.2°N, 123.95°W
Report Text: KAST 200955Z AUTO 19009KT 10SM -RA FEW021 SCT027 OVC042 14/13 A2970 RMK AO2 SLP057 P0002 T01440128
Loading
Personal Weather Stations






























Interactive Weather Map
Tropical Storm Tracking
New forecast layout! Learn more

10-Day Weather Forecast

Advertisements
Track Severe Weather on mobile